Time;durP1;ratioP1;P1;durP2;ratioP2;P2;SDS_P1;SDS_P2;PMS_P1;PMS_P2;Temp;Humidity;BMP_temperature;BMP_pressure;BME280_temperature;BME280_humidity;BME280_pressure;Samples;Min_cycle;Max_cycle;Signal;HPM_P1;HPM_P2
2022/03/25 00:01:37;;;;;;;122.45;49.33;;;4.00;99.90;;;;;;5044951;28;20491;-68
2022/03/25 00:04:03;;;;;;;131.45;50.58;;;4.00;99.90;;;;;;5048123;28;20554;-68
2022/03/25 00:06:30;;;;;;;128.23;51.85;;;4.00;99.90;;;;;;5047018;28;20033;-68
2022/03/25 00:08:55;;;;;;;132.32;51.30;;;3.90;99.90;;;;;;5059205;28;20040;-68
2022/03/25 00:11:21;;;;;;;133.13;51.42;;;3.80;99.90;;;;;;5049279;28;20037;-68
2022/03/25 00:13:46;;;;;;;134.32;51.47;;;3.80;99.90;;;;;;5031753;28;20453;-68
2022/03/25 00:16:12;;;;;;;134.93;51.25;;;3.70;99.90;;;;;;5048796;28;20483;-68
2022/03/25 00:18:38;;;;;;;133.57;50.08;;;3.70;99.90;;;;;;5047320;28;20048;-68
2022/03/25 00:21:03;;;;;;;134.93;52.80;;;3.70;99.90;;;;;;5046907;28;20464;-68
2022/03/25 00:23:29;;;;;;;132.57;49.90;;;3.60;99.90;;;;;;5046646;28;20128;-68
2022/03/25 00:25:55;;;;;;;132.60;50.40;;;3.60;99.90;;;;;;5047630;28;20040;-68
2022/03/25 00:28:21;;;;;;;134.65;51.72;;;3.50;99.90;;;;;;5046925;28;20048;-68
2022/03/25 00:30:47;;;;;;;124.45;49.63;;;3.40;99.90;;;;;;5030131;28;20487;-68
2022/03/25 00:33:14;;;;;;;125.45;49.60;;;3.40;99.90;;;;;;5048147;28;20040;-68
2022/03/25 00:35:40;;;;;;;114.38;46.15;;;3.30;99.90;;;;;;5047877;28;20045;-68
2022/03/25 00:38:06;;;;;;;121.18;49.08;;;3.30;99.90;;;;;;5046123;28;20048;-68
2022/03/25 00:40:31;;;;;;;221.13;44.60;;;3.30;99.90;;;;;;5047633;28;20130;-68
2022/03/25 00:42:58;;;;;;;120.70;43.10;;;3.20;99.90;;;;;;5047595;28;20037;-68
2022/03/25 00:45:25;;;;;;;172.13;42.25;;;3.10;99.90;;;;;;5047711;28;20411;-68
2022/03/25 00:47:50;;;;;;;145.70;43.10;;;3.10;99.90;;;;;;5048163;28;20048;-68
2022/03/25 00:50:16;;;;;;;156.45;42.53;;;3.10;99.90;;;;;;5047825;28;20429;-67
2022/03/25 00:52:42;;;;;;;383.50;50.00;;;3.10;99.90;;;;;;5047280;28;20029;-67
2022/03/25 00:55:08;;;;;;;254.18;47.20;;;3.10;99.90;;;;;;5045652;28;20392;-68
2022/03/25 00:57:34;;;;;;;135.20;47.55;;;3.10;99.90;;;;;;5048119;28;20036;-68
2022/03/25 01:00:00;;;;;;;522.63;56.08;;;3.10;99.90;;;;;;5043416;28;20372;-67
2022/03/25 01:02:25;;;;;;;448.10;48.97;;;3.10;99.90;;;;;;5044951;28;20049;-68
2022/03/25 01:04:51;;;;;;;571.53;53.40;;;3.00;99.90;;;;;;5048194;28;20069;-68
2022/03/25 01:07:17;;;;;;;135.52;43.55;;;3.00;99.90;;;;;;5048237;28;20056;-68
2022/03/25 01:09:43;;;;;;;115.30;44.67;;;2.80;99.90;;;;;;5049202;28;20033;-68
2022/03/25 01:12:09;;;;;;;715.25;57.58;;;2.70;99.90;;;;;;5049349;28;20051;-68
2022/03/25 01:14:35;;;;;;;551.47;55.90;;;2.60;99.90;;;;;;5049349;28;20029;-68
2022/03/25 01:17:02;;;;;;;110.28;42.63;;;2.60;99.90;;;;;;5047489;28;20037;-68
2022/03/25 01:19:27;;;;;;;125.15;48.53;;;2.50;99.90;;;;;;5048413;28;20410;-68
2022/03/25 01:21:54;;;;;;;202.80;39.63;;;2.40;99.90;;;;;;5052436;28;20045;-68
2022/03/25 01:24:20;;;;;;;217.13;39.03;;;2.40;99.90;;;;;;5048630;28;21190;-68
2022/03/25 01:26:46;;;;;;;356.67;43.63;;;2.30;99.90;;;;;;5046977;28;20083;-68
2022/03/25 01:29:12;;;;;;;131.05;48.28;;;2.20;99.90;;;;;;5053959;28;20055;-68
2022/03/25 01:31:38;;;;;;;136.98;49.60;;;2.20;99.90;;;;;;5048768;28;20052;-68
2022/03/25 01:34:04;;;;;;;131.60;45.90;;;2.20;99.90;;;;;;5047514;28;20037;-68
2022/03/25 01:36:30;;;;;;;124.15;47.55;;;2.30;99.90;;;;;;5048628;28;20041;-68
2022/03/25 01:38:56;;;;;;;139.75;51.10;;;2.30;99.90;;;;;;5053015;28;20052;-68
2022/03/25 01:41:21;;;;;;;147.32;50.85;;;2.30;99.90;;;;;;5052281;28;20073;-68
2022/03/25 01:43:53;;;;;;;892.38;80.10;;;2.30;99.90;;;;;;5053413;28;20068;-68
2022/03/25 01:46:24;;;;;;;804.20;61.95;;;2.20;99.90;;;;;;5054630;28;20507;-68
2022/03/25 01:48:50;;;;;;;603.58;50.17;;;2.10;99.90;;;;;;5052550;28;20045;-68
2022/03/25 01:51:22;;;;;;;1069.85;68.75;;;2.00;99.90;;;;;;5056807;28;20047;-68
2022/03/25 01:53:48;;;;;;;730.63;54.90;;;1.90;99.90;;;;;;5053843;28;20451;-68
2022/03/25 01:56:21;;;;;;;706.92;55.22;;;1.80;99.90;;;;;;5052574;28;20187;-68
2022/03/25 01:58:46;;;;;;;470.58;50.15;;;1.70;99.90;;;;;;5053490;28;20033;-68
2022/03/25 02:01:12;;;;;;;397.17;41.90;;;1.60;99.90;;;;;;5053724;28;20037;-67
2022/03/25 02:03:37;;;;;;;544.25;47.67;;;1.60;99.90;;;;;;5053440;28;20052;-67
2022/03/25 02:06:04;;;;;;;763.75;54.78;;;1.60;99.90;;;;;;5051607;28;20056;-67
2022/03/25 02:08:30;;;;;;;717.88;55.72;;;1.70;99.90;;;;;;5053419;28;20036;-68
2022/03/25 02:10:56;;;;;;;1093.68;71.32;;;1.70;99.90;;;;;;5053317;28;20048;-68
2022/03/25 02:13:22;;;;;;;891.55;57.42;;;1.60;99.90;;;;;;5048236;28;20381;-68
2022/03/25 02:15:49;;;;;;;631.83;50.17;;;1.70;99.90;;;;;;5053890;28;20051;-68
2022/03/25 02:18:18;;;;;;;766.35;54.13;;;1.60;99.90;;;;;;5059990;28;20095;-68
2022/03/25 02:20:49;;;;;;;872.10;60.83;;;1.60;99.90;;;;;;5053320;28;20095;-68
2022/03/25 02:23:15;;;;;;;941.10;59.97;;;1.60;99.90;;;;;;5053212;28;20033;-68
2022/03/25 02:25:41;;;;;;;1059.90;67.82;;;1.50;99.90;;;;;;5054791;28;20087;-68
2022/03/25 02:28:07;;;;;;;1023.08;65.07;;;1.60;99.90;;;;;;5052223;28;20083;-67
2022/03/25 02:30:35;;;;;;;933.78;63.95;;;1.60;99.90;;;;;;5054779;28;20120;-67
2022/03/25 02:33:02;;;;;;;765.60;56.60;;;1.60;99.90;;;;;;5035463;28;20055;-67
2022/03/25 02:35:40;;;;;;;798.83;57.22;;;1.50;99.90;;;;;;5034409;28;20045;-67
2022/03/25 02:38:06;;;;;;;747.42;56.97;;;1.50;99.90;;;;;;5052082;28;20037;-67
2022/03/25 02:40:32;;;;;;;695.65;52.42;;;1.40;99.90;;;;;;5053134;28;20060;-67
2022/03/25 02:42:58;;;;;;;523.33;45.63;;;1.30;99.90;;;;;;5052326;28;20052;-67
2022/03/25 02:45:24;;;;;;;378.48;38.70;;;1.30;99.90;;;;;;5052849;28;20041;-67
2022/03/25 02:47:49;;;;;;;712.90;52.95;;;1.30;99.90;;;;;;5053725;28;20537;-67
2022/03/25 02:50:16;;;;;;;803.90;58.45;;;1.20;99.90;;;;;;5053578;28;20040;-67
2022/03/25 02:52:42;;;;;;;262.30;37.13;;;1.10;99.90;;;;;;5053181;28;20040;-67
2022/03/25 02:55:08;;;;;;;725.20;57.70;;;1.10;99.90;;;;;;5053886;28;20201;-67
2022/03/25 02:57:35;;;;;;;142.23;41.40;;;1.00;99.90;;;;;;5053096;28;20068;-68
2022/03/25 03:00:01;;;;;;;250.13;45.53;;;0.90;99.90;;;;;;5053517;28;20037;-68
2022/03/25 03:02:26;;;;;;;624.38;60.30;;;0.90;99.90;;;;;;5053320;28;20142;-68
2022/03/25 03:04:52;;;;;;;730.83;62.70;;;0.70;99.90;;;;;;5053627;28;20080;-68
2022/03/25 03:07:18;;;;;;;406.85;48.17;;;0.60;99.90;;;;;;5053135;28;20455;-68
2022/03/25 03:09:44;;;;;;;360.23;44.28;;;0.50;99.90;;;;;;5053391;28;20484;-68
2022/03/25 03:12:10;;;;;;;139.38;39.97;;;0.50;99.90;;;;;;5053123;28;20043;-68
2022/03/25 03:14:36;;;;;;;169.10;38.42;;;0.40;99.90;;;;;;5053280;28;20045;-68
2022/03/25 03:17:04;;;;;;;586.08;47.65;;;0.40;99.90;;;;;;5053029;28;20032;-67
2022/03/25 03:19:31;;;;;;;415.10;38.53;;;0.40;99.90;;;;;;5052372;28;20400;-67
2022/03/25 03:21:57;;;;;;;293.27;36.15;;;0.40;99.90;;;;;;5052547;28;20495;-67
2022/03/25 03:24:23;;;;;;;274.92;35.15;;;0.30;99.90;;;;;;5052595;28;20059;-67
2022/03/25 03:26:48;;;;;;;478.25;41.03;;;0.30;99.90;;;;;;5052593;28;20471;-67
2022/03/25 03:29:14;;;;;;;293.10;34.72;;;0.20;99.90;;;;;;5052199;28;20443;-67
2022/03/25 03:31:39;;;;;;;423.10;37.03;;;0.20;99.90;;;;;;5051480;28;20083;-67
2022/03/25 03:34:05;;;;;;;278.35;35.58;;;0.20;99.90;;;;;;5032916;28;20041;-67
2022/03/25 03:36:31;;;;;;;204.65;35.88;;;0.20;99.90;;;;;;5052710;28;20044;-67
2022/03/25 03:38:56;;;;;;;73.28;33.00;;;0.20;99.90;;;;;;5052726;28;20041;-67
2022/03/25 03:41:30;;;;;;;87.18;32.97;;;0.10;99.90;;;;;;5052603;28;20056;-67
2022/03/25 03:43:55;;;;;;;602.92;53.85;;;0.10;99.90;;;;;;5052635;28;20047;-67
2022/03/25 03:46:21;;;;;;;122.53;32.53;;;0.10;99.90;;;;;;5052532;28;20045;-67
2022/03/25 03:48:46;;;;;;;94.22;31.73;;;0.10;99.90;;;;;;5052649;28;20105;-67
2022/03/25 03:51:12;;;;;;;85.63;34.03;;;0.00;99.90;;;;;;5052652;28;20078;-67
2022/03/25 03:53:38;;;;;;;92.25;35.05;;;0.00;99.90;;;;;;5052482;28;20102;-67
2022/03/25 03:56:04;;;;;;;149.32;36.47;;;-0.10;99.90;;;;;;5052510;28;20090;-67
2022/03/25 03:58:29;;;;;;;109.63;36.67;;;-0.20;99.90;;;;;;5052353;28;20033;-67
2022/03/25 04:00:55;;;;;;;95.20;33.33;;;-0.30;99.90;;;;;;5051945;28;20479;-67
2022/03/25 04:03:20;;;;;;;289.27;37.47;;;-0.30;99.90;;;;;;5051061;28;20430;-67
2022/03/25 04:05:46;;;;;;;112.05;32.25;;;-0.30;99.90;;;;;;5052546;28;20127;-67
2022/03/25 04:08:11;;;;;;;112.55;33.60;;;-0.30;99.90;;;;;;5052250;28;20041;-67
2022/03/25 04:10:37;;;;;;;144.45;35.78;;;-0.30;99.90;;;;;;5052602;28;20108;-67
2022/03/25 04:13:03;;;;;;;525.65;48.25;;;-0.40;99.90;;;;;;5053552;28;20049;-67
2022/03/25 04:15:28;;;;;;;510.23;46.72;;;-0.40;99.90;;;;;;5051320;28;20039;-67
2022/03/25 04:17:54;;;;;;;693.40;52.42;;;-0.50;99.90;;;;;;5035811;28;20040;-66
2022/03/25 04:20:20;;;;;;;481.98;48.42;;;-0.50;99.90;;;;;;5049921;28;20045;-66
2022/03/25 04:22:45;;;;;;;243.15;33.08;;;-0.60;99.90;;;;;;5049187;28;20037;-66
2022/03/25 04:25:13;;;;;;;504.38;40.40;;;-0.50;99.90;;;;;;5049117;28;20480;-66
2022/03/25 04:28:05;;;;;;;393.00;36.92;;;-0.50;99.90;;;;;;5048622;28;20072;-66
2022/03/25 04:30:34;;;;;;;547.00;44.15;;;-0.50;99.90;;;;;;5040052;28;20091;-65
2022/03/25 04:33:00;;;;;;;514.03;42.30;;;-0.50;99.90;;;;;;5032894;28;20091;-65
2022/03/25 04:35:27;;;;;;;527.05;41.08;;;-0.50;99.90;;;;;;5052510;28;20032;-66
2022/03/25 04:37:53;;;;;;;663.38;49.17;;;-0.50;99.90;;;;;;5047819;28;20036;-67
2022/03/25 04:40:20;;;;;;;559.58;40.50;;;-0.40;99.90;;;;;;5047105;28;20487;-65
2022/03/25 04:42:51;;;;;;;630.90;47.30;;;-0.40;99.90;;;;;;5048376;28;20032;-65
2022/03/25 04:45:17;;;;;;;581.70;44.85;;;-0.40;99.90;;;;;;5048619;28;20053;-65
2022/03/25 04:47:44;;;;;;;498.75;39.92;;;-0.50;99.90;;;;;;5049411;28;20441;-65
2022/03/25 04:50:11;;;;;;;522.13;44.38;;;-0.40;99.90;;;;;;5060755;28;20483;-65
2022/03/25 04:52:37;;;;;;;525.28;45.08;;;-0.40;99.90;;;;;;5049478;28;20041;-65
2022/03/25 04:55:03;;;;;;;338.20;37.55;;;-0.60;99.90;;;;;;5049638;28;20040;-65
2022/03/25 04:57:29;;;;;;;180.77;33.58;;;-0.60;99.90;;;;;;5049442;28;20051;-66
2022/03/25 04:59:55;;;;;;;137.77;33.35;;;-0.60;99.90;;;;;;5049039;28;20179;-66
2022/03/25 05:02:21;;;;;;;93.05;32.33;;;-0.70;99.90;;;;;;5050493;28;20049;-66
2022/03/25 05:04:47;;;;;;;128.60;34.78;;;-0.60;99.90;;;;;;5062436;28;20037;-66
2022/03/25 05:07:17;;;;;;;110.32;32.13;;;-0.70;99.90;;;;;;5035609;28;20078;-66
2022/03/25 05:09:43;;;;;;;86.85;30.98;;;-0.70;99.90;;;;;;5048854;28;20041;-66
2022/03/25 05:12:10;;;;;;;102.50;30.15;;;-0.70;99.90;;;;;;5049725;28;20125;-66
2022/03/25 05:14:35;;;;;;;218.25;32.85;;;-0.70;99.90;;;;;;5033916;28;20249;-66
2022/03/25 05:17:01;;;;;;;306.45;34.03;;;-0.70;99.90;;;;;;5053540;28;20033;-65
2022/03/25 05:19:27;;;;;;;215.88;33.25;;;-0.70;99.90;;;;;;5052363;28;20087;-65
2022/03/25 05:21:52;;;;;;;74.03;29.25;;;-0.80;99.90;;;;;;5053701;28;20063;-66
2022/03/25 05:24:18;;;;;;;116.68;32.70;;;-0.80;99.90;;;;;;5053157;28;20463;-65
2022/03/25 05:26:44;;;;;;;455.50;40.75;;;-0.90;99.90;;;;;;5035603;28;20087;-65
2022/03/25 05:29:10;;;;;;;598.17;50.33;;;-0.90;99.90;;;;;;5050078;28;20454;-65
2022/03/25 05:31:36;;;;;;;459.25;40.05;;;-0.80;99.90;;;;;;5052538;28;20439;-65
2022/03/25 05:34:04;;;;;;;426.98;37.63;;;-0.90;99.90;;;;;;5052480;28;20037;-65
2022/03/25 05:36:33;;;;;;;380.67;36.78;;;-1.00;99.90;;;;;;5052956;28;20063;-65
2022/03/25 05:38:59;;;;;;;159.13;30.60;;;-1.00;99.90;;;;;;5051743;28;20037;-65
2022/03/25 05:41:26;;;;;;;169.77;30.35;;;-1.00;99.90;;;;;;5052711;28;20048;-65
2022/03/25 05:43:51;;;;;;;320.88;37.58;;;-1.10;99.90;;;;;;5055912;28;20084;-65
2022/03/25 05:46:17;;;;;;;202.70;33.90;;;-1.00;99.90;;;;;;5049875;28;20495;-65
2022/03/25 05:48:43;;;;;;;216.05;36.22;;;-1.00;99.90;;;;;;5051259;28;20041;-65
2022/03/25 05:51:10;;;;;;;217.32;33.65;;;-1.00;99.90;;;;;;5052147;28;20025;-65
2022/03/25 05:53:39;;;;;;;343.17;38.88;;;-1.00;99.90;;;;;;5055928;28;20032;-65
2022/03/25 05:56:05;;;;;;;304.83;35.22;;;-0.90;99.90;;;;;;5052055;28;20032;-65
2022/03/25 05:58:35;;;;;;;341.95;37.03;;;-0.90;99.90;;;;;;5044808;28;20452;-65
2022/03/25 06:01:01;;;;;;;678.33;55.38;;;-0.90;99.90;;;;;;5051257;28;20082;-65
2022/03/25 06:03:27;;;;;;;686.10;61.33;;;-0.90;99.90;;;;;;5035228;28;20105;-65
2022/03/25 06:05:53;;;;;;;353.70;38.35;;;-0.90;99.90;;;;;;5050693;28;20684;-65
2022/03/25 06:08:18;;;;;;;295.35;39.22;;;-0.80;99.90;;;;;;5051100;28;20049;-65
2022/03/25 06:10:44;;;;;;;227.15;36.90;;;-0.80;99.90;;;;;;5059934;28;20072;-65
2022/03/25 06:13:09;;;;;;;96.75;33.25;;;-0.70;99.90;;;;;;5064375;28;20044;-65
2022/03/25 06:15:35;;;;;;;129.43;34.90;;;-0.70;99.90;;;;;;5060397;28;20091;-66
2022/03/25 06:18:00;;;;;;;93.40;33.72;;;-0.60;99.90;;;;;;5057957;28;20577;-65
2022/03/25 06:20:29;;;;;;;109.18;34.92;;;-0.60;99.90;;;;;;5057037;28;20530;-65
2022/03/25 06:22:54;;;;;;;175.65;37.63;;;-0.50;99.90;;;;;;5058004;28;20535;-65
2022/03/25 06:25:20;;;;;;;250.20;39.70;;;-0.50;99.90;;;;;;5051604;28;20175;-65
2022/03/25 06:28:00;;;;;;;176.38;36.30;;;-0.50;99.90;;;;;;5051041;28;20082;-65
2022/03/25 06:30:33;;;;;;;78.13;32.65;;;-0.40;99.90;;;;;;5049742;28;20041;-65
2022/03/25 06:32:59;;;;;;;72.75;32.28;;;-0.40;99.90;;;;;;5051527;28;20048;-65
2022/03/25 06:35:25;;;;;;;187.43;35.58;;;-0.30;99.90;;;;;;5051428;28;20045;-65
2022/03/25 06:37:55;;;;;;;174.27;35.42;;;-0.30;99.90;;;;;;5051594;28;20032;-65
2022/03/25 06:40:21;;;;;;;321.52;37.50;;;-0.20;99.90;;;;;;5051398;28;20174;-65
2022/03/25 06:42:47;;;;;;;179.30;33.97;;;-0.20;99.90;;;;;;5059160;28;20488;-65
2022/03/25 06:45:15;;;;;;;75.28;28.00;;;-0.20;99.90;;;;;;5052622;28;20388;-65
2022/03/25 06:47:40;;;;;;;84.53;28.92;;;-0.10;99.90;;;;;;5050014;28;20072;-65
2022/03/25 06:50:08;;;;;;;66.47;29.38;;;0.00;99.90;;;;;;5056690;28;20029;-65
2022/03/25 06:52:34;;;;;;;71.18;31.08;;;0.10;99.90;;;;;;5051496;28;20075;-65
2022/03/25 06:54:59;;;;;;;74.07;30.98;;;0.30;99.90;;;;;;5050294;28;20072;-65
2022/03/25 06:57:25;;;;;;;70.82;30.15;;;0.40;99.90;;;;;;5050734;28;20442;-65
2022/03/25 06:59:51;;;;;;;76.75;33.30;;;0.70;99.90;;;;;;5050476;28;20387;-66
2022/03/25 07:02:17;;;;;;;79.82;34.33;;;0.80;99.90;;;;;;5049835;28;20130;-65
2022/03/25 07:04:43;;;;;;;82.75;33.35;;;1.00;99.90;;;;;;5051154;28;20033;-66
2022/03/25 07:07:09;;;;;;;90.45;35.30;;;1.10;99.90;;;;;;5049614;28;20040;-66
2022/03/25 07:09:35;;;;;;;99.10;38.55;;;1.40;99.90;;;;;;5034889;28;20124;-67
2022/03/25 07:12:02;;;;;;;92.78;36.42;;;1.50;99.90;;;;;;5051376;28;20179;-67
2022/03/25 07:14:28;;;;;;;108.55;40.67;;;1.60;99.90;;;;;;5052061;28;20070;-67
2022/03/25 07:16:53;;;;;;;103.68;40.08;;;1.80;99.90;;;;;;5052564;28;20044;-67
2022/03/25 07:19:19;;;;;;;101.65;39.85;;;2.00;99.90;;;;;;5051908;28;20454;-68
2022/03/25 07:21:45;;;;;;;108.78;41.13;;;2.20;99.90;;;;;;5051805;28;20048;-68
2022/03/25 07:24:13;;;;;;;108.93;42.10;;;2.40;99.90;;;;;;5060649;28;20045;-68
2022/03/25 07:26:39;;;;;;;119.68;42.88;;;2.60;99.90;;;;;;5033259;28;20037;-68
2022/03/25 07:29:05;;;;;;;101.22;37.33;;;2.80;99.90;;;;;;5033291;28;20045;-68
2022/03/25 07:31:32;;;;;;;106.45;40.00;;;3.00;99.90;;;;;;5032974;28;20034;-68
2022/03/25 07:33:58;;;;;;;112.65;40.45;;;3.30;99.90;;;;;;5046403;28;20029;-69
2022/03/25 07:36:24;;;;;;;120.28;44.00;;;3.50;99.90;;;;;;5073043;28;20506;-69
2022/03/25 07:38:51;;;;;;;127.25;45.03;;;3.70;99.90;;;;;;5071990;28;20029;-70
2022/03/25 07:41:17;;;;;;;127.35;46.47;;;4.00;99.90;;;;;;5072840;28;20518;-70
2022/03/25 07:43:43;;;;;;;127.32;44.05;;;4.00;99.90;;;;;;5072765;28;20041;-70
2022/03/25 07:46:08;;;;;;;131.45;45.00;;;4.20;99.90;;;;;;5052679;28;20415;-69
2022/03/25 07:48:34;;;;;;;114.65;40.30;;;4.40;99.90;;;;;;5052539;28;20044;-70
2022/03/25 07:51:00;;;;;;;121.65;41.10;;;4.70;99.90;;;;;;5054171;28;20036;-70
2022/03/25 07:53:25;;;;;;;123.97;41.72;;;4.90;99.90;;;;;;5069979;28;20502;-70
2022/03/25 07:55:51;;;;;;;145.88;47.65;;;5.10;99.90;;;;;;5060012;28;20515;-70
2022/03/25 07:58:21;;;;;;;143.32;45.55;;;5.30;99.90;;;;;;5035829;28;20053;-70
2022/03/25 08:00:51;;;;;;;144.25;47.45;;;5.50;99.90;;;;;;5041765;28;20102;-70
2022/03/25 08:03:18;;;;;;;145.82;50.08;;;5.70;99.90;;;;;;5052894;28;20048;-70
2022/03/25 08:05:43;;;;;;;150.15;49.78;;;5.80;99.90;;;;;;5046822;28;20059;-70
2022/03/25 08:08:09;;;;;;;149.55;46.92;;;6.00;99.90;;;;;;5048546;28;20037;-70
2022/03/25 08:10:36;;;;;;;141.75;42.08;;;6.20;99.90;;;;;;5049903;28;20047;-69
2022/03/25 08:13:02;;;;;;;157.00;49.63;;;6.40;99.90;;;;;;5050618;28;20044;-69
2022/03/25 08:15:32;;;;;;;168.05;52.00;;;6.70;99.90;;;;;;5049095;28;20047;-70
2022/03/25 08:18:02;;;;;;;155.38;44.63;;;6.80;99.90;;;;;;5046593;28;20396;-70
2022/03/25 08:20:33;;;;;;;164.35;51.50;;;6.90;99.90;;;;;;5045133;28;20063;-70
2022/03/25 08:22:59;;;;;;;166.80;49.88;;;7.00;99.90;;;;;;5060317;28;20037;-70
2022/03/25 08:28:10;;;;;;;156.02;49.95;;;7.30;99.90;;;;;;5048804;28;20411;-70
2022/03/25 08:30:37;;;;;;;164.85;50.60;;;7.50;99.90;;;;;;5045256;28;20116;-70
2022/03/25 08:33:03;;;;;;;154.40;49.30;;;7.70;99.90;;;;;;5047547;28;20051;-70
2022/03/25 08:35:29;;;;;;;163.55;49.17;;;7.90;99.90;;;;;;5048228;28;20037;-69
2022/03/25 08:37:55;;;;;;;138.90;44.92;;;8.00;99.90;;;;;;5048993;28;20040;-69
2022/03/25 08:40:22;;;;;;;163.38;50.03;;;8.20;99.90;;;;;;5029037;28;20037;-70
2022/03/25 08:42:48;;;;;;;158.70;49.40;;;8.40;99.90;;;;;;5054468;28;20034;-69
2022/03/25 08:45:15;;;;;;;149.95;49.40;;;8.40;99.90;;;;;;5047976;28;20116;-69
2022/03/25 08:47:41;;;;;;;154.48;48.22;;;8.70;99.90;;;;;;5048943;28;20087;-69
2022/03/25 08:50:09;;;;;;;142.18;47.25;;;8.80;99.90;;;;;;5047940;28;20504;-70
2022/03/25 08:52:36;;;;;;;132.25;39.25;;;8.90;99.90;;;;;;5048915;28;20029;-69
2022/03/25 08:55:02;;;;;;;132.75;41.30;;;9.10;99.90;;;;;;5048577;28;20060;-70
2022/03/25 08:57:27;;;;;;;121.57;36.80;;;9.30;99.90;;;;;;5048687;28;20048;-70
2022/03/25 08:59:53;;;;;;;131.18;44.95;;;9.50;99.90;;;;;;5046501;28;20044;-69
2022/03/25 09:02:18;;;;;;;138.90;45.00;;;9.60;99.90;;;;;;5047869;28;20094;-70
2022/03/25 09:04:46;;;;;;;120.50;38.67;;;9.70;99.90;;;;;;5048213;28;20404;-70
2022/03/25 09:07:12;;;;;;;136.48;45.22;;;9.90;99.90;;;;;;5048708;28;20082;-69
2022/03/25 09:09:38;;;;;;;128.05;39.97;;;10.10;99.90;;;;;;5049311;28;20048;-70
2022/03/25 09:12:04;;;;;;;112.32;33.40;;;10.20;99.90;;;;;;5047098;28;20037;-70
2022/03/25 09:14:30;;;;;;;129.43;40.10;;;10.40;99.90;;;;;;5065481;28;20125;-68
2022/03/25 09:16:56;;;;;;;134.13;41.50;;;10.50;99.90;;;;;;5042186;28;20091;-71
2022/03/25 09:19:21;;;;;;;122.65;42.38;;;10.60;99.90;;;;;;5027859;28;20190;-69
2022/03/25 09:21:47;;;;;;;120.05;38.30;;;10.70;99.90;;;;;;5046333;28;20118;-69
2022/03/25 09:24:12;;;;;;;132.13;42.30;;;10.80;99.90;;;;;;5047757;28;20041;-69
2022/03/25 09:26:38;;;;;;;131.75;42.30;;;11.00;99.90;;;;;;5048761;28;20087;-70
2022/03/25 09:29:04;;;;;;;93.82;25.52;;;11.00;99.90;;;;;;5048251;28;20037;-69
2022/03/25 09:31:30;;;;;;;120.13;41.85;;;11.10;99.90;;;;;;5049171;28;20106;-71
2022/03/25 09:35:08;;;;;;;112.13;39.47;;;11.20;99.90;;;;;;5049435;28;20037;-69
2022/03/25 09:36:41;;;;;;;114.40;40.83;;;11.30;99.90;;;;;;5041263;28;20049;-68
2022/03/25 09:39:06;;;;;;;110.07;37.90;;;11.40;99.90;;;;;;5047642;28;20043;-69
2022/03/25 09:41:32;;;;;;;104.22;31.02;;;11.50;99.90;;;;;;5048148;28;20036;-69
2022/03/25 09:43:58;;;;;;;113.55;38.00;;;11.70;99.90;;;;;;5048181;28;20037;-69
2022/03/25 09:46:25;;;;;;;114.32;37.60;;;11.80;99.90;;;;;;5048342;28;20037;-69
2022/03/25 09:48:50;;;;;;;117.63;39.28;;;11.90;99.90;;;;;;5045419;28;20029;-68
2022/03/25 09:51:16;;;;;;;114.00;39.55;;;11.90;99.90;;;;;;5049085;28;20045;-68
2022/03/25 09:53:43;;;;;;;111.10;39.88;;;11.90;99.90;;;;;;5048889;28;20044;-69
2022/03/25 09:56:09;;;;;;;115.65;40.60;;;11.80;99.90;;;;;;5059783;28;20462;-69
2022/03/25 09:58:34;;;;;;;108.38;39.70;;;11.80;99.90;;;;;;5068616;28;20456;-69
2022/03/25 10:01:00;;;;;;;105.63;36.08;;;11.90;99.90;;;;;;5036123;28;20048;-69
2022/03/25 10:03:33;;;;;;;106.68;38.17;;;11.90;99.90;;;;;;5022766;28;20132;-68
2022/03/25 10:05:59;;;;;;;98.97;38.05;;;12.10;99.90;;;;;;5033834;28;20095;-69
2022/03/25 10:08:32;;;;;;;102.85;37.88;;;12.10;99.90;;;;;;5051950;28;20416;-68
2022/03/25 10:11:27;;;;;;;103.13;36.97;;;12.20;99.90;;;;;;5049395;28;20090;-69
2022/03/25 10:14:19;;;;;;;103.03;37.35;;;12.30;99.90;;;;;;5049478;28;20041;-68
2022/03/25 10:16:50;;;;;;;104.32;37.40;;;12.50;99.90;;;;;;5051165;28;20522;-69
2022/03/25 10:19:21;;;;;;;100.60;36.10;;;12.60;99.90;;;;;;5050157;28;20033;-68
2022/03/25 10:21:52;;;;;;;110.60;37.20;;;12.80;99.90;;;;;;5049884;28;20037;-67
2022/03/25 10:24:34;;;;;;;103.60;36.20;;;12.90;99.90;;;;;;5050256;28;20483;-69
2022/03/25 10:27:07;;;;;;;101.73;36.20;;;13.00;99.90;;;;;;5049032;28;20047;-69
2022/03/25 10:29:35;;;;;;;107.03;37.95;;;13.10;99.90;;;;;;5052122;28;20124;-70
2022/03/25 10:32:10;;;;;;;95.15;34.25;;;13.20;99.90;;;;;;5043223;28;20072;-69
2022/03/25 10:34:37;;;;;;;98.55;35.90;;;13.40;99.90;;;;;;5033972;28;20467;-68
2022/03/25 10:37:05;;;;;;;104.45;38.13;;;13.40;99.90;;;;;;5048693;28;20049;-69
2022/03/25 10:39:32;;;;;;;103.05;38.17;;;13.50;99.90;;;;;;5048935;28;20120;-68
2022/03/25 10:42:03;;;;;;;95.57;36.47;;;13.60;99.90;;;;;;5053042;28;20056;-69
2022/03/25 10:44:41;;;;;;;93.97;32.20;;;13.70;99.90;;;;;;5059499;28;20753;-68
2022/03/25 10:47:16;;;;;;;101.22;37.20;;;13.90;97.30;;;;;;5057946;28;20037;-67
2022/03/25 10:49:43;;;;;;;99.05;36.95;;;13.90;99.20;;;;;;5056505;28;20047;-68
2022/03/25 10:52:32;;;;;;;105.15;36.53;;;14.00;99.90;;;;;;5057171;28;20106;-68
2022/03/25 10:55:13;;;;;;;97.47;37.30;;;14.10;97.50;;;;;;5047845;28;20122;-68
2022/03/25 10:57:56;;;;;;;96.75;38.17;;;14.20;99.90;;;;;;5048280;28;20052;-69
2022/03/25 11:00:24;;;;;;;92.47;35.50;;;14.30;99.90;;;;;;5061042;28;20068;-69
2022/03/25 11:02:50;;;;;;;99.28;35.92;;;14.50;92.50;;;;;;5049337;28;20041;-68
2022/03/25 11:05:17;;;;;;;92.40;35.25;;;14.50;97.50;;;;;;5049755;28;20072;-68
2022/03/25 11:07:44;;;;;;;95.70;34.50;;;14.60;97.10;;;;;;5033765;28;20392;-68
2022/03/25 11:10:14;;;;;;;92.35;35.50;;;14.60;96.20;;;;;;5032860;28;20399;-70
2022/03/25 11:12:45;;;;;;;108.18;35.40;;;14.70;97.70;;;;;;5050312;28;20041;-68
2022/03/25 11:15:13;;;;;;;91.45;34.42;;;14.80;98.30;;;;;;5049011;28;20033;-68
2022/03/25 11:17:41;;;;;;;92.45;34.70;;;14.90;91.00;;;;;;5060301;28;20158;-69
2022/03/25 11:20:11;;;;;;;93.55;35.80;;;15.00;88.10;;;;;;5067009;28;20047;-69
2022/03/25 11:23:17;;;;;;;95.13;34.55;;;15.00;90.90;;;;;;5051075;28;20119;-69
2022/03/25 11:25:46;;;;;;;92.38;32.88;;;15.10;92.50;;;;;;5021937;28;20053;-70
2022/03/25 11:28:26;;;;;;;95.70;36.55;;;15.30;85.30;;;;;;5047800;28;20033;-70
2022/03/25 11:31:01;;;;;;;85.78;35.00;;;15.30;88.80;;;;;;5046353;28;20045;-70
2022/03/25 11:33:27;;;;;;;91.43;36.17;;;15.30;93.60;;;;;;5048048;28;20037;-69
2022/03/25 11:36:13;;;;;;;90.47;35.63;;;15.40;93.50;;;;;;5040083;28;20041;-70
2022/03/25 11:38:39;;;;;;;91.10;35.08;;;15.50;94.30;;;;;;5032679;28;20132;-69
2022/03/25 11:41:21;;;;;;;92.10;35.38;;;15.60;81.80;;;;;;5053117;28;20131;-70
2022/03/25 11:44:15;;;;;;;91.13;36.45;;;15.60;86.10;;;;;;5041509;28;20542;-69
2022/03/25 11:46:59;;;;;;;91.38;34.28;;;15.70;91.80;;;;;;5052206;28;20504;-70
2022/03/25 11:49:26;;;;;;;94.95;33.80;;;15.70;91.50;;;;;;5049782;28;20040;-69
2022/03/25 11:51:52;;;;;;;90.07;34.60;;;15.80;92.70;;;;;;5050585;28;20048;-70
2022/03/25 11:54:34;;;;;;;83.68;33.03;;;15.80;90.30;;;;;;5049201;28;20037;-70
2022/03/25 11:57:02;;;;;;;81.72;34.08;;;15.80;74.80;;;;;;5049046;28;20041;-69
2022/03/25 11:59:49;;;;;;;85.90;33.30;;;15.90;87.90;;;;;;5049381;28;20044;-69
2022/03/25 12:02:32;;;;;;;85.90;33.90;;;16.00;87.80;;;;;;5048417;28;20033;-69
2022/03/25 12:05:02;;;;;;;80.55;32.72;;;16.00;78.20;;;;;;5068181;28;20048;-69
2022/03/25 12:07:28;;;;;;;96.10;35.72;;;16.10;86.30;;;;;;5063547;28;20147;-69
2022/03/25 12:09:54;;;;;;;92.78;32.45;;;16.20;87.10;;;;;;5031430;28;20132;-69
2022/03/25 12:12:39;;;;;;;78.88;30.58;;;16.20;79.80;;;;;;5060809;28;20086;-70
2022/03/25 12:15:13;;;;;;;94.35;31.20;;;16.20;83.90;;;;;;5048568;28;20047;-69
2022/03/25 12:17:39;;;;;;;89.47;31.58;;;16.40;69.10;;;;;;5050715;28;20049;-68
2022/03/25 12:20:06;;;;;;;82.07;32.63;;;16.40;79.60;;;;;;5052865;28;20545;-69
2022/03/25 12:22:37;;;;;;;122.38;33.72;;;16.40;75.50;;;;;;5070048;28;20119;-70
2022/03/25 12:25:08;;;;;;;83.93;31.00;;;16.50;73.20;;;;;;5053132;28;20045;-68
2022/03/25 12:27:34;;;;;;;87.05;30.52;;;16.60;61.50;;;;;;5050323;28;20308;-69
2022/03/25 12:29:59;;;;;;;92.10;29.80;;;16.60;62.20;;;;;;5049600;28;20033;-69